Time;durP1;ratioP1;P1;durP2;ratioP2;P2;SDS_P1;SDS_P2;PMS_P1;PMS_P2;Temp;Humidity;BMP_temperature;BMP_pressure;BME280_temperature;BME280_humidity;BME280_pressure;Samples;Min_cycle;Max_cycle;Signal;HPM_P1;HPM_P2
2021/08/15 00:00:11;;;;;;;21.38;11.30;;;;;;;;;;6225687;23;20190;-91
2021/08/15 00:03:41;;;;;;;19.10;11.57;;;;;;;;;;6226692;23;20210;-91
2021/08/15 00:07:00;;;;;;;21.88;12.07;;;;;;;;;;6224536;23;20534;-91
2021/08/15 00:10:35;;;;;;;20.33;10.88;;;;;;;;;;6225288;23;20175;-91
2021/08/15 00:14:08;;;;;;;18.73;11.38;;;;;;;;;;6226721;23;20171;-90
2021/08/15 00:21:02;;;;;;;19.85;11.98;;;;;;;;;;5141684;27;20599;-88
2021/08/15 00:24:21;;;;;;;21.38;11.48;;;;;;;;;;5123104;28;20177;-89
2021/08/15 00:27:42;;;;;;;22.23;11.23;;;;;;;;;;5122534;28;20173;-91
2021/08/15 00:31:00;;;;;;;22.33;12.38;;;;;;;;;;5120242;28;20184;-90
2021/08/15 00:34:29;;;;;;;20.65;12.60;;;;;;;;;;5122628;27;20190;-90
2021/08/15 00:38:00;;;;;;;19.33;11.02;;;;;;;;;;5120827;28;20193;-90
2021/08/15 00:41:23;;;;;;;21.42;11.30;;;;;;;;;;5121085;28;20197;-90
2021/08/15 00:44:41;;;;;;;20.73;11.32;;;;;;;;;;5120632;28;20194;-89
2021/08/15 00:47:59;;;;;;;21.38;11.68;;;;;;;;;;5121556;27;20197;-91
2021/08/15 00:51:16;;;;;;;18.65;10.98;;;;;;;;;;5121601;28;20189;-91
2021/08/15 00:54:34;;;;;;;18.95;11.38;;;;;;;;;;5121849;28;20174;-92
2021/08/15 00:57:57;;;;;;;21.52;11.25;;;;;;;;;;5123177;28;20319;-92
2021/08/15 01:01:17;;;;;;;22.20;11.95;;;;;;;;;;5122950;28;20185;-92
2021/08/15 01:04:37;;;;;;;22.60;11.05;;;;;;;;;;5120285;27;20194;-92
2021/08/15 01:08:02;;;;;;;25.95;11.75;;;;;;;;;;5120388;28;20197;-92
2021/08/15 01:11:27;;;;;;;20.05;11.98;;;;;;;;;;5121203;28;20320;-92
2021/08/15 01:14:49;;;;;;;25.30;11.50;;;;;;;;;;5120750;28;20238;-91
2021/08/15 01:18:28;;;;;;;21.88;12.18;;;;;;;;;;5119454;28;20193;-93
2021/08/15 01:21:50;;;;;;;18.00;11.57;;;;;;;;;;5120631;28;20721;-91
2021/08/15 01:25:14;;;;;;;18.95;11.57;;;;;;;;;;5120383;28;20186;-90
2021/08/15 01:28:48;;;;;;;24.02;11.85;;;;;;;;;;5120603;28;20177;-89
2021/08/15 01:32:11;;;;;;;21.77;10.63;;;;;;;;;;5105594;28;20229;-91
2021/08/15 01:35:29;;;;;;;19.58;10.95;;;;;;;;;;5106155;28;20186;-91
2021/08/15 01:38:55;;;;;;;22.90;11.95;;;;;;;;;;5105977;28;20261;-90
2021/08/15 01:42:17;;;;;;;24.40;11.48;;;;;;;;;;5105907;28;20201;-92
2021/08/15 01:45:50;;;;;;;19.08;11.18;;;;;;;;;;5104199;28;20217;-91
2021/08/15 01:49:04;;;;;;;20.88;11.82;;;;;;;;;;5106612;28;20190;-90
2021/08/15 01:52:30;;;;;;;20.30;11.00;;;;;;;;;;5106234;28;20684;-91
2021/08/15 01:56:19;;;;;;;19.73;12.63;;;;;;;;;;5105326;28;20174;-90
2021/08/15 01:59:47;;;;;;;20.33;11.00;;;;;;;;;;5105469;28;20221;-91
2021/08/15 02:03:17;;;;;;;18.25;11.25;;;;;;;;;;5106924;28;20190;-92
2021/08/15 02:06:42;;;;;;;18.05;11.32;;;;;;;;;;5106303;28;20194;-92
2021/08/15 02:09:50;;;;;;;19.08;11.52;;;;;;;;;;5105173;28;20274;-90
2021/08/15 02:16:36;;;;;;;18.17;11.82;;;;;;;;;;5106432;28;20198;-90
2021/08/15 02:19:55;;;;;;;22.13;11.52;;;;;;;;;;5104029;28;20244;-91
2021/08/15 02:23:26;;;;;;;25.17;13.55;;;;;;;;;;5105933;28;20186;-91
2021/08/15 02:26:50;;;;;;;21.55;11.45;;;;;;;;;;5105173;28;20185;-90
2021/08/15 02:29:59;;;;;;;24.00;12.00;;;;;;;;;;5104449;28;20236;-91
2021/08/15 02:33:06;;;;;;;18.98;11.85;;;;;;;;;;5103918;28;20177;-92
2021/08/15 02:36:27;;;;;;;21.52;12.20;;;;;;;;;;5104583;28;20189;-91
2021/08/15 02:39:44;;;;;;;17.55;11.32;;;;;;;;;;5104207;28;20204;-91
2021/08/15 02:43:12;;;;;;;20.92;11.65;;;;;;;;;;5103620;28;20328;-91
2021/08/15 02:50:07;;;;;;;32.13;12.52;;;;;;;;;;5105024;28;20201;-91
2021/08/15 02:53:27;;;;;;;26.17;11.90;;;;;;;;;;5104371;28;20561;-91
2021/08/15 02:56:39;;;;;;;20.63;12.05;;;;;;;;;;5105562;28;20298;-91
2021/08/15 02:59:56;;;;;;;24.77;10.98;;;;;;;;;;5102492;28;20209;-91
2021/08/15 03:03:14;;;;;;;23.17;11.75;;;;;;;;;;5103314;28;20594;-91
2021/08/15 03:06:35;;;;;;;19.35;11.70;;;;;;;;;;5102659;28;20213;-90
2021/08/15 03:10:00;;;;;;;20.30;11.75;;;;;;;;;;5103635;28;20560;-93
2021/08/15 03:13:16;;;;;;;23.80;11.50;;;;;;;;;;5103216;28;20215;-92
2021/08/15 03:16:38;;;;;;;22.70;11.93;;;;;;;;;;5103989;28;20174;-91
2021/08/15 03:20:14;;;;;;;20.42;11.75;;;;;;;;;;5103735;28;20252;-90
2021/08/15 03:23:40;;;;;;;25.25;11.77;;;;;;;;;;5103888;28;20655;-92
2021/08/15 03:27:00;;;;;;;21.83;12.13;;;;;;;;;;5103397;28;20605;-91
2021/08/15 03:30:21;;;;;;;21.85;11.95;;;;;;;;;;5103247;28;20664;-91
2021/08/15 03:33:49;;;;;;;19.38;11.07;;;;;;;;;;5101678;28;20193;-92
2021/08/15 03:37:19;;;;;;;22.13;10.88;;;;;;;;;;5103577;28;20197;-91
2021/08/15 03:40:38;;;;;;;21.33;10.82;;;;;;;;;;5103403;28;20221;-91
2021/08/15 03:44:03;;;;;;;23.45;11.88;;;;;;;;;;5104266;28;20275;-92
2021/08/15 03:47:19;;;;;;;19.02;11.70;;;;;;;;;;5103980;28;20191;-91
2021/08/15 03:50:37;;;;;;;23.30;11.82;;;;;;;;;;5104160;28;20257;-91
2021/08/15 03:53:59;;;;;;;22.73;12.23;;;;;;;;;;5103652;28;20186;-91
2021/08/15 03:57:10;;;;;;;21.17;11.32;;;;;;;;;;5102512;28;20274;-91
2021/08/15 04:00:34;;;;;;;28.98;11.68;;;;;;;;;;5103142;28;20217;-91
2021/08/15 04:03:55;;;;;;;19.20;11.02;;;;;;;;;;5103821;28;20186;-92
2021/08/15 04:07:10;;;;;;;18.67;11.25;;;;;;;;;;5102696;28;20339;-91
2021/08/15 04:10:35;;;;;;;19.45;11.55;;;;;;;;;;5101792;28;20271;-91
2021/08/15 04:13:57;;;;;;;20.38;11.50;;;;;;;;;;5101937;28;20198;-91
2021/08/15 04:17:16;;;;;;;22.73;11.02;;;;;;;;;;5103320;28;20182;-91
2021/08/15 04:20:32;;;;;;;19.05;11.82;;;;;;;;;;5102091;28;20279;-92
2021/08/15 04:23:52;;;;;;;22.17;10.93;;;;;;;;;;5102329;28;20201;-91
2021/08/15 04:27:14;;;;;;;17.58;10.90;;;;;;;;;;5103463;28;20616;-90
2021/08/15 04:30:52;;;;;;;18.23;10.45;;;;;;;;;;5105213;28;20232;-91
2021/08/15 04:34:07;;;;;;;24.73;11.82;;;;;;;;;;5104000;28;20186;-92
2021/08/15 04:37:29;;;;;;;18.33;11.15;;;;;;;;;;5103438;28;20189;-90
2021/08/15 04:40:56;;;;;;;17.27;10.55;;;;;;;;;;5104683;28;20213;-91
2021/08/15 04:44:06;;;;;;;18.15;10.60;;;;;;;;;;5104115;28;20190;-91
2021/08/15 04:47:17;;;;;;;20.38;10.80;;;;;;;;;;5103216;28;20181;-90
2021/08/15 04:50:49;;;;;;;18.10;10.18;;;;;;;;;;5103420;28;20253;-92
2021/08/15 04:54:12;;;;;;;16.90;10.35;;;;;;;;;;5102272;28;20189;-92
2021/08/15 04:57:34;;;;;;;18.80;11.05;;;;;;;;;;5101646;28;20305;-90
2021/08/15 05:00:52;;;;;;;18.13;11.32;;;;;;;;;;5100979;28;20218;-91
2021/08/15 05:04:16;;;;;;;18.65;11.10;;;;;;;;;;5102893;28;20194;-93
2021/08/15 05:07:42;;;;;;;20.58;11.13;;;;;;;;;;5104502;28;20692;-92
2021/08/15 05:11:04;;;;;;;18.88;11.55;;;;;;;;;;5108307;28;20202;-91
2021/08/15 05:14:24;;;;;;;23.50;12.48;;;;;;;;;;5107991;28;20244;-91
2021/08/15 05:17:43;;;;;;;22.08;11.88;;;;;;;;;;5105827;28;20200;-92
2021/08/15 05:21:17;;;;;;;24.65;11.82;;;;;;;;;;5104681;28;20209;-91
2021/08/15 05:24:32;;;;;;;23.85;11.45;;;;;;;;;;5105852;28;20577;-91
2021/08/15 05:27:53;;;;;;;18.42;11.60;;;;;;;;;;5107461;28;20218;-92
2021/08/15 05:31:18;;;;;;;20.50;11.15;;;;;;;;;;5106537;28;20178;-90
2021/08/15 05:34:35;;;;;;;17.58;10.95;;;;;;;;;;5105481;28;20193;-92
2021/08/15 05:37:54;;;;;;;19.20;10.93;;;;;;;;;;5104845;28;20608;-91
2021/08/15 05:41:05;;;;;;;18.90;11.30;;;;;;;;;;5104518;28;20332;-91
2021/08/15 05:44:21;;;;;;;17.05;10.18;;;;;;;;;;5105920;28;20254;-91
2021/08/15 05:47:47;;;;;;;17.63;10.93;;;;;;;;;;5105804;28;20251;-91
2021/08/15 05:51:14;;;;;;;18.50;10.32;;;;;;;;;;5105789;28;20178;-92
2021/08/15 05:54:31;;;;;;;17.17;9.85;;;;;;;;;;5105828;28;20694;-91
2021/08/15 05:57:56;;;;;;;17.92;9.85;;;;;;;;;;5104659;28;20194;-91
2021/08/15 06:01:19;;;;;;;19.30;10.25;;;;;;;;;;5105594;28;20263;-90
2021/08/15 06:04:53;;;;;;;17.75;9.73;;;;;;;;;;5106705;28;20236;-91
2021/08/15 06:08:18;;;;;;;18.35;9.90;;;;;;;;;;5104660;28;20207;-91
2021/08/15 06:11:46;;;;;;;18.15;9.90;;;;;;;;;;5103965;28;20189;-90
2021/08/15 06:15:07;;;;;;;25.63;10.55;;;;;;;;;;5104108;28;20219;-90
2021/08/15 06:18:22;;;;;;;20.50;10.75;;;;;;;;;;5103850;28;20190;-91
2021/08/15 06:21:42;;;;;;;19.95;10.57;;;;;;;;;;5103216;28;20244;-92
2021/08/15 06:25:07;;;;;;;19.00;10.30;;;;;;;;;;5105816;28;20198;-92
2021/08/15 06:28:31;;;;;;;20.45;11.13;;;;;;;;;;5103689;28;20186;-91
2021/08/15 06:31:57;;;;;;;18.60;10.30;;;;;;;;;;5106550;28;20185;-90
2021/08/15 06:35:21;;;;;;;19.05;10.80;;;;;;;;;;5103211;28;20227;-91
2021/08/15 06:38:40;;;;;;;16.48;10.35;;;;;;;;;;5102627;28;20205;-92
2021/08/15 06:42:10;;;;;;;18.35;11.13;;;;;;;;;;5103319;28;20225;-92
2021/08/15 06:45:33;;;;;;;17.33;10.60;;;;;;;;;;5104727;28;20185;-91
2021/08/15 06:48:57;;;;;;;17.77;11.32;;;;;;;;;;5104362;28;20691;-91
2021/08/15 06:52:25;;;;;;;20.00;11.10;;;;;;;;;;5104535;28;20204;-92
2021/08/15 06:55:48;;;;;;;15.38;9.93;;;;;;;;;;5103644;28;20190;-92
2021/08/15 06:59:10;;;;;;;16.85;10.05;;;;;;;;;;5105133;28;20206;-91
2021/08/15 07:02:53;;;;;;;13.73;9.23;;;;;;;;;;5105980;28;20244;-93
2021/08/15 07:06:14;;;;;;;17.77;9.45;;;;;;;;;;5076348;28;20234;-93
2021/08/15 07:09:50;;;;;;;16.08;9.65;;;;;;;;;;5086292;28;20715;-95
2021/08/15 07:13:10;;;;;;;19.48;9.98;;;;;;;;;;5077129;28;20240;-92
2021/08/15 07:16:16;;;;;;;19.17;9.70;;;;;;;;;;5086053;28;20194;-92
2021/08/15 07:19:21;;;;;;;18.45;9.68;;;;;;;;;;5083876;28;20202;-93
2021/08/15 07:22:29;;;;;;;17.55;9.52;;;;;;;;;;5086335;28;20206;-93
2021/08/15 07:25:38;;;;;;;17.90;10.18;;;;;;;;;;5086231;28;20191;-91
2021/08/15 07:28:43;;;;;;;15.15;9.18;;;;;;;;;;5084673;28;20205;-94
2021/08/15 07:31:55;;;;;;;17.20;9.13;;;;;;;;;;5084668;28;20206;-91
2021/08/15 07:35:26;;;;;;;16.80;8.65;;;;;;;;;;5083743;28;20190;-90
2021/08/15 07:39:04;;;;;;;15.80;9.60;;;;;;;;;;5085325;28;20189;-91
2021/08/15 07:45:51;;;;;;;12.52;8.32;;;;;;;;;;5085915;28;20198;-91
2021/08/15 07:48:58;;;;;;;15.30;9.10;;;;;;;;;;5085511;28;20711;-92
2021/08/15 07:52:11;;;;;;;16.58;9.25;;;;;;;;;;5098565;28;20589;-90
2021/08/15 07:55:37;;;;;;;18.10;8.45;;;;;;;;;;5081063;28;20182;-93
2021/08/15 07:58:57;;;;;;;17.90;8.95;;;;;;;;;;5082430;28;20201;-92
2021/08/15 08:02:19;;;;;;;14.60;9.32;;;;;;;;;;5083944;28;20213;-92
2021/08/15 08:05:38;;;;;;;13.70;9.25;;;;;;;;;;5083465;28;20718;-91
2021/08/15 08:09:03;;;;;;;16.00;8.27;;;;;;;;;;5083001;28;20178;-90
2021/08/15 08:16:04;;;;;;;14.13;8.63;;;;;;;;;;5084738;28;20675;-91
2021/08/15 08:19:26;;;;;;;13.90;8.10;;;;;;;;;;5090318;28;20221;-92
2021/08/15 08:22:56;;;;;;;15.15;8.27;;;;;;;;;;5083803;28;20190;-92
2021/08/15 08:29:51;;;;;;;15.48;9.00;;;;;;;;;;5089706;28;20259;-92
2021/08/15 08:36:52;;;;;;;19.15;8.93;;;;;;;;;;5084787;28;20213;-92
2021/08/15 08:43:47;;;;;;;16.65;8.45;;;;;;;;;;5119506;28;20199;-92
2021/08/15 08:50:36;;;;;;;16.02;9.07;;;;;;;;;;5093114;28;20213;-89
2021/08/15 08:53:45;;;;;;;12.93;8.52;;;;;;;;;;5105890;28;20219;-91
2021/08/15 08:56:59;;;;;;;15.57;8.77;;;;;;;;;;5108947;28;20197;-91
2021/08/15 09:03:34;;;;;;;14.10;8.30;;;;;;;;;;5107738;28;20611;-91
2021/08/15 09:07:01;;;;;;;15.73;8.43;;;;;;;;;;5108284;28;20219;-89
2021/08/15 09:10:30;;;;;;;14.73;8.35;;;;;;;;;;5107128;28;20270;-91
2021/08/15 09:13:48;;;;;;;15.77;8.55;;;;;;;;;;5107223;28;20196;-93
2021/08/15 09:17:06;;;;;;;20.08;8.70;;;;;;;;;;5104646;28;20211;-91
2021/08/15 09:20:47;;;;;;;17.25;9.00;;;;;;;;;;5105689;28;20264;-90
2021/08/15 09:24:08;;;;;;;18.13;8.40;;;;;;;;;;5087725;28;20240;-92
2021/08/15 09:27:19;;;;;;;13.18;7.38;;;;;;;;;;5106975;28;20256;-91
2021/08/15 09:30:32;;;;;;;14.85;7.63;;;;;;;;;;5107761;28;20235;-93
2021/08/15 09:37:20;;;;;;;22.00;7.68;;;;;;;;;;5086919;28;20283;-92
2021/08/15 09:40:29;;;;;;;18.85;7.90;;;;;;;;;;5105136;28;20217;-95
2021/08/15 09:43:54;;;;;;;20.38;8.68;;;;;;;;;;5109051;28;20266;-93
2021/08/15 09:47:04;;;;;;;13.70;7.10;;;;;;;;;;5109188;28;20192;-91
2021/08/15 09:50:23;;;;;;;13.68;7.57;;;;;;;;;;5108972;28;20181;-93
2021/08/15 09:54:00;;;;;;;15.18;7.70;;;;;;;;;;5107622;28;20264;-92
2021/08/15 09:57:36;;;;;;;20.63;8.20;;;;;;;;;;5107414;28;20189;-90
2021/08/15 10:00:57;;;;;;;15.65;8.45;;;;;;;;;;5108138;28;20181;-92
2021/08/15 10:04:17;;;;;;;17.38;7.75;;;;;;;;;;5106865;28;20205;-92
2021/08/15 10:07:42;;;;;;;18.85;7.40;;;;;;;;;;5106941;28;20231;-92
2021/08/15 12:27:25;;;;;;;17.75;7.68;;;;;;;;;;5542335;22;13459348;-90
2021/08/15 12:30:33;;;;;;;20.02;8.23;;;;;;;;;;6083370;23;20200;-89
2021/08/15 12:33:41;;;;;;;18.50;8.48;;;;;;;;;;6079608;23;20174;-90
2021/08/15 12:36:57;;;;;;;17.98;8.02;;;;;;;;;;6079721;23;20205;-91
2021/08/15 12:40:20;;;;;;;16.67;8.18;;;;;;;;;;6080170;23;20166;-90
2021/08/15 12:43:44;;;;;;;25.23;8.90;;;;;;;;;;6081507;23;20252;-92
2021/08/15 12:47:19;;;;;;;17.60;8.05;;;;;;;;;;6082775;23;20248;-91
2021/08/15 12:51:05;;;;;;;19.30;8.00;;;;;;;;;;6083488;23;20261;-91
2021/08/15 12:54:45;;;;;;;28.70;8.93;;;;;;;;;;6080672;23;20614;-90
2021/08/15 12:57:58;;;;;;;17.10;7.93;;;;;;;;;;6082098;23;20251;-91
2021/08/15 13:01:09;;;;;;;18.40;8.23;;;;;;;;;;6084672;23;20170;-91
2021/08/15 13:04:27;;;;;;;14.43;7.78;;;;;;;;;;6081097;23;20173;-91
2021/08/15 13:07:42;;;;;;;16.17;7.45;;;;;;;;;;6080510;23;20166;-91
2021/08/15 13:11:06;;;;;;;16.60;7.57;;;;;;;;;;6079996;23;20166;-92
2021/08/15 13:14:20;;;;;;;20.38;6.85;;;;;;;;;;6081188;23;20169;-93
2021/08/15 13:17:52;;;;;;;19.30;7.38;;;;;;;;;;6082349;23;20181;-92
2021/08/15 13:21:06;;;;;;;22.05;8.57;;;;;;;;;;6082633;23;20170;-92
2021/08/15 13:24:24;;;;;;;21.17;7.25;;;;;;;;;;6082533;23;20218;-92
2021/08/15 13:27:38;;;;;;;19.85;7.57;;;;;;;;;;6082556;23;20194;-92
2021/08/15 13:34:38;;;;;;;22.42;6.20;;;;;;;;;;6081323;23;20888;-91
2021/08/15 13:38:09;;;;;;;17.30;6.82;;;;;;;;;;6082828;23;20216;-92
2021/08/15 13:41:26;;;;;;;19.90;5.80;;;;;;;;;;6082798;23;20191;-91
2021/08/15 13:44:46;;;;;;;17.40;6.43;;;;;;;;;;6080692;23;20165;-91
2021/08/15 13:48:19;;;;;;;14.77;6.00;;;;;;;;;;6080346;23;20493;-91
2021/08/15 13:51:39;;;;;;;21.00;5.45;;;;;;;;;;6081994;23;20166;-93
2021/08/15 13:54:46;;;;;;;12.75;6.15;;;;;;;;;;6082324;23;20174;-93
2021/08/15 13:57:59;;;;;;;15.15;5.90;;;;;;;;;;6080839;23;20166;-89
2021/08/15 14:01:14;;;;;;;16.38;6.15;;;;;;;;;;6082053;23;20170;-91
2021/08/15 14:04:35;;;;;;;14.95;6.70;;;;;;;;;;6084061;23;20222;-91
2021/08/15 14:07:54;;;;;;;12.63;6.10;;;;;;;;;;6080539;23;20267;-92
2021/08/15 14:14:57;;;;;;;22.63;6.63;;;;;;;;;;6081401;23;20158;-91
2021/08/15 14:18:17;;;;;;;20.48;6.63;;;;;;;;;;6080293;23;20333;-92
2021/08/15 14:21:37;;;;;;;12.38;5.93;;;;;;;;;;6082372;23;20906;-92
2021/08/15 14:24:57;;;;;;;18.00;6.63;;;;;;;;;;6083815;23;20154;-91
2021/08/15 14:28:28;;;;;;;22.02;6.68;;;;;;;;;;6081697;23;20229;-92
2021/08/15 14:31:52;;;;;;;19.05;7.00;;;;;;;;;;6084716;23;20171;-91
2021/08/15 14:35:09;;;;;;;12.45;5.82;;;;;;;;;;6080268;23;20246;-91
2021/08/15 14:38:33;;;;;;;14.93;6.55;;;;;;;;;;6081294;23;20216;-92
2021/08/15 14:41:56;;;;;;;18.80;6.15;;;;;;;;;;6080040;23;20167;-91
2021/08/15 14:45:31;;;;;;;17.27;6.10;;;;;;;;;;6079326;23;20179;-90
2021/08/15 14:48:49;;;;;;;15.07;6.25;;;;;;;;;;6078630;23;20180;-91
2021/08/15 14:52:08;;;;;;;14.60;6.20;;;;;;;;;;6080040;23;20174;-91
2021/08/15 14:55:25;;;;;;;15.88;6.57;;;;;;;;;;6080351;23;20170;-91
2021/08/15 14:58:41;;;;;;;16.63;6.35;;;;;;;;;;6082018;23;20185;-91
2021/08/15 15:02:01;;;;;;;20.13;6.75;;;;;;;;;;6081382;23;20187;-91
2021/08/15 15:05:19;;;;;;;15.65;6.45;;;;;;;;;;6081330;23;20178;-91
2021/08/15 15:08:35;;;;;;;20.30;7.18;;;;;;;;;;6084223;23;20174;-92
2021/08/15 15:11:43;;;;;;;20.73;7.45;;;;;;;;;;6082730;23;20170;-89
2021/08/15 15:15:09;;;;;;;23.20;7.15;;;;;;;;;;6082296;23;20174;-91
2021/08/15 15:18:24;;;;;;;21.58;7.07;;;;;;;;;;6080663;23;20188;-91
2021/08/15 15:21:40;;;;;;;16.55;7.18;;;;;;;;;;6083458;23;20174;-90
2021/08/15 15:24:57;;;;;;;19.13;7.10;;;;;;;;;;6081865;23;20166;-90
2021/08/15 15:28:29;;;;;;;14.95;6.57;;;;;;;;;;6082424;23;20174;-90
2021/08/15 15:31:47;;;;;;;15.02;6.15;;;;;;;;;;6080294;23;20626;-90
2021/08/15 15:35:08;;;;;;;16.88;6.15;;;;;;;;;;6082528;23;20166;-89
2021/08/15 15:38:26;;;;;;;15.65;6.70;;;;;;;;;;6083783;23;20199;-89
2021/08/15 15:41:47;;;;;;;16.10;6.38;;;;;;;;;;6082739;23;20652;-89
2021/08/15 15:44:54;;;;;;;16.80;7.05;;;;;;;;;;6081889;23;20481;-90
2021/08/15 15:48:10;;;;;;;18.33;6.43;;;;;;;;;;6082501;23;20170;-90
2021/08/15 15:51:31;;;;;;;20.45;7.07;;;;;;;;;;6082007;23;20174;-90
2021/08/15 15:58:19;;;;;;;19.00;7.28;;;;;;;;;;6080197;23;20492;-90
2021/08/15 16:01:44;;;;;;;18.52;7.20;;;;;;;;;;6080590;23;20166;-89
2021/08/15 16:04:55;;;;;;;18.10;7.30;;;;;;;;;;6082712;23;20725;-90
2021/08/15 16:08:12;;;;;;;20.02;7.07;;;;;;;;;;6083027;23;20585;-90
2021/08/15 16:11:31;;;;;;;17.33;7.45;;;;;;;;;;6083061;23;20562;-90
2021/08/15 16:14:58;;;;;;;17.25;7.07;;;;;;;;;;6081863;23;20179;-91
2021/08/15 16:18:19;;;;;;;13.82;7.13;;;;;;;;;;6083782;23;20280;-88
2021/08/15 16:22:00;;;;;;;15.98;7.53;;;;;;;;;;6083523;23;20252;-90
2021/08/15 16:25:22;;;;;;;18.13;7.88;;;;;;;;;;6085356;23;20212;-92
2021/08/15 16:28:31;;;;;;;16.05;7.10;;;;;;;;;;6082657;23;20610;-92
2021/08/15 16:31:36;;;;;;;18.52;7.50;;;;;;;;;;6085578;23;20153;-91
2021/08/15 16:34:41;;;;;;;25.90;8.60;;;;;;;;;;6084321;23;20178;-91
2021/08/15 16:37:46;;;;;;;16.20;7.43;;;;;;;;;;6083571;23;20202;-92
2021/08/15 16:41:03;;;;;;;16.48;7.78;;;;;;;;;;6083304;23;20303;-91
2021/08/15 16:44:23;;;;;;;17.92;7.90;;;;;;;;;;6082630;23;20170;-91
2021/08/15 16:55:03;;;;;;;20.98;8.15;;;;;;;;;;6083755;23;20195;-90
2021/08/15 16:58:24;;;;;;;17.42;7.97;;;;;;;;;;6084053;23;20326;-91
2021/08/15 17:01:38;;;;;;;28.95;9.55;;;;;;;;;;6084082;23;20222;-89
2021/08/15 17:05:00;;;;;;;22.20;8.85;;;;;;;;;;6083712;23;20171;-90
2021/08/15 17:08:21;;;;;;;17.52;8.80;;;;;;;;;;6084888;23;20166;-90
2021/08/15 17:11:35;;;;;;;19.67;9.10;;;;;;;;;;6089021;23;20179;-90
2021/08/15 17:15:07;;;;;;;19.38;9.38;;;;;;;;;;6085860;23;20224;-90
2021/08/15 17:43:55;;;;;;;16.10;4.00;;;;;;;;;;6112340;23;20214;-87
2021/08/15 17:47:24;;;;;;;15.88;4.40;;;;;;;;;;6123610;23;20268;-89
2021/08/15 17:50:36;;;;;;;14.57;3.22;;;;;;;;;;6124990;23;20286;-89
2021/08/15 17:53:42;;;;;;;11.07;3.75;;;;;;;;;;6124553;23;20202;-88
2021/08/15 17:56:47;;;;;;;11.52;3.63;;;;;;;;;;6123109;23;20350;-89
2021/08/15 17:59:54;;;;;;;20.05;4.18;;;;;;;;;;6124248;23;20168;-89
2021/08/15 18:02:58;;;;;;;8.65;3.50;;;;;;;;;;6124429;23;20505;-87
2021/08/15 18:06:04;;;;;;;7.70;3.30;;;;;;;;;;6123998;23;20189;-89
2021/08/15 18:09:09;;;;;;;9.70;3.35;;;;;;;;;;6124100;23;20177;-89
2021/08/15 18:12:18;;;;;;;9.23;3.58;;;;;;;;;;6122857;23;20172;-88
2021/08/15 18:15:25;;;;;;;12.23;3.90;;;;;;;;;;6121314;23;20162;-89
2021/08/15 18:18:30;;;;;;;12.40;4.70;;;;;;;;;;6122665;23;20255;-89
2021/08/15 18:21:35;;;;;;;19.88;4.00;;;;;;;;;;6125991;23;20191;-91
2021/08/15 18:24:42;;;;;;;11.07;3.33;;;;;;;;;;6124090;23;20612;-89
2021/08/15 18:27:47;;;;;;;10.52;4.43;;;;;;;;;;6124321;23;20160;-89
2021/08/15 18:30:54;;;;;;;12.18;3.60;;;;;;;;;;6123782;23;20169;-89
2021/08/15 18:34:00;;;;;;;11.10;4.53;;;;;;;;;;6123262;23;20153;-90
2021/08/15 18:37:05;;;;;;;13.23;4.63;;;;;;;;;;6122714;23;20185;-89
2021/08/15 19:21:16;;;;;;;7.45;2.75;;;;;;;;;;6119373;23;20214;-89
2021/08/15 19:24:22;;;;;;;5.75;3.30;;;;;;;;;;6141156;23;20169;-88
2021/08/15 19:27:26;;;;;;;7.32;3.47;;;;;;;;;;6122472;23;20173;-88
2021/08/15 19:30:31;;;;;;;11.00;3.67;;;;;;;;;;6124975;23;20192;-88
2021/08/15 19:33:36;;;;;;;9.40;3.03;;;;;;;;;;6126639;23;20206;-89
2021/08/15 19:36:43;;;;;;;9.80;3.33;;;;;;;;;;6127752;23;20173;-88
2021/08/15 19:39:49;;;;;;;8.02;3.63;;;;;;;;;;6126114;23;20182;-88
2021/08/15 19:42:54;;;;;;;9.40;3.70;;;;;;;;;;6128329;23;20159;-90
2021/08/15 19:46:00;;;;;;;13.65;3.50;;;;;;;;;;6127032;23;20173;-89
2021/08/15 19:49:05;;;;;;;7.30;3.08;;;;;;;;;;6126806;23;20215;-89
2021/08/15 19:52:11;;;;;;;6.95;3.67;;;;;;;;;;6124684;23;20170;-89
2021/08/15 19:55:16;;;;;;;8.70;4.05;;;;;;;;;;6125172;23;20169;-89
2021/08/15 19:58:21;;;;;;;7.93;3.55;;;;;;;;;;6125199;23;20266;-90
2021/08/15 20:01:26;;;;;;;9.75;3.83;;;;;;;;;;6123606;23;20193;-88
2021/08/15 20:04:31;;;;;;;8.23;3.15;;;;;;;;;;6123014;23;20169;-89
2021/08/15 20:07:38;;;;;;;6.85;3.60;;;;;;;;;;6125457;23;20190;-89
2021/08/15 20:10:43;;;;;;;6.57;3.40;;;;;;;;;;6125054;23;20169;-91
2021/08/15 20:13:49;;;;;;;9.98;3.40;;;;;;;;;;6123396;23;20168;-91
2021/08/15 20:16:55;;;;;;;7.40;3.28;;;;;;;;;;6123089;23;20168;-91
2021/08/15 20:20:02;;;;;;;7.63;3.42;;;;;;;;;;6123147;23;20217;-89
2021/08/15 20:23:09;;;;;;;9.25;3.45;;;;;;;;;;6125553;23;20178;-89
2021/08/15 20:26:14;;;;;;;8.07;3.60;;;;;;;;;;6126752;23;20180;-90
2021/08/15 20:29:20;;;;;;;10.65;4.10;;;;;;;;;;6127928;23;20501;-91
2021/08/15 20:32:26;;;;;;;12.50;3.65;;;;;;;;;;6125548;23;20170;-90
2021/08/15 20:35:31;;;;;;;12.25;4.95;;;;;;;;;;6125113;23;20225;-91
2021/08/15 20:38:38;;;;;;;11.85;4.00;;;;;;;;;;6125679;23;20379;-91
2021/08/15 20:41:43;;;;;;;8.70;3.50;;;;;;;;;;6122330;23;20169;-90
2021/08/15 20:44:48;;;;;;;8.40;3.08;;;;;;;;;;6124421;23;20197;-91
2021/08/15 20:47:53;;;;;;;11.95;3.35;;;;;;;;;;6125279;23;20176;-90
2021/08/15 20:50:58;;;;;;;6.03;2.90;;;;;;;;;;6123818;23;20509;-90
2021/08/15 20:54:05;;;;;;;7.20;2.97;;;;;;;;;;6125397;23;20239;-90
2021/08/15 20:57:11;;;;;;;6.53;2.75;;;;;;;;;;6124264;23;20246;-90
2021/08/15 21:00:16;;;;;;;6.30;3.25;;;;;;;;;;6123401;23;20157;-90
2021/08/15 21:03:22;;;;;;;7.40;3.25;;;;;;;;;;6124496;23;20488;-91
2021/08/15 21:06:27;;;;;;;9.88;3.47;;;;;;;;;;6123637;23;20160;-89
2021/08/15 21:09:33;;;;;;;8.00;3.33;;;;;;;;;;6124198;23;20168;-90
2021/08/15 21:12:38;;;;;;;7.20;3.38;;;;;;;;;;6125450;23;20241;-90
2021/08/15 21:15:44;;;;;;;7.95;3.60;;;;;;;;;;6124711;23;20173;-91
2021/08/15 21:18:49;;;;;;;10.40;3.45;;;;;;;;;;6124363;23;20201;-90
2021/08/15 21:21:54;;;;;;;8.88;3.38;;;;;;;;;;6122078;23;20628;-91
2021/08/15 21:25:01;;;;;;;10.15;4.40;;;;;;;;;;6123278;23;20165;-90
2021/08/15 21:28:06;;;;;;;10.40;3.50;;;;;;;;;;6125245;23;20190;-89
2021/08/15 21:31:11;;;;;;;8.77;3.55;;;;;;;;;;6124066;23;20172;-90
2021/08/15 21:34:16;;;;;;;7.93;3.70;;;;;;;;;;6125352;23;20237;-90
2021/08/15 21:37:21;;;;;;;10.52;3.33;;;;;;;;;;6126093;23;20169;-89
2021/08/15 21:40:28;;;;;;;13.13;5.18;;;;;;;;;;6126583;23;20202;-89
2021/08/15 21:43:35;;;;;;;10.27;3.60;;;;;;;;;;6124974;23;20169;-90
2021/08/15 21:46:40;;;;;;;13.25;3.95;;;;;;;;;;6124380;23;20220;-90
2021/08/15 21:49:44;;;;;;;8.20;3.40;;;;;;;;;;6123186;23;20260;-89
2021/08/15 21:52:50;;;;;;;13.00;3.88;;;;;;;;;;6122992;23;20173;-90
2021/08/15 21:55:56;;;;;;;9.52;3.42;;;;;;;;;;6123007;23;20157;-90
2021/08/15 21:59:02;;;;;;;8.98;3.78;;;;;;;;;;6121773;23;20193;-89
2021/08/15 22:02:15;;;;;;;10.23;4.30;;;;;;;;;;6121461;23;20180;-90
2021/08/15 22:05:20;;;;;;;9.77;4.13;;;;;;;;;;6121665;23;20173;-89
2021/08/15 22:08:25;;;;;;;8.60;4.10;;;;;;;;;;6121906;23;20177;-89
2021/08/15 22:11:32;;;;;;;6.18;3.55;;;;;;;;;;6123582;23;20205;-89
2021/08/15 22:14:37;;;;;;;6.53;3.63;;;;;;;;;;6122731;23;20403;-91
2021/08/15 22:17:42;;;;;;;8.00;3.50;;;;;;;;;;6123352;23;20241;-89
2021/08/15 22:20:48;;;;;;;9.95;4.13;;;;;;;;;;6121766;23;20175;-89
2021/08/15 22:23:53;;;;;;;7.75;3.35;;;;;;;;;;6120142;23;20169;-90
2021/08/15 22:26:59;;;;;;;6.95;3.70;;;;;;;;;;6121618;23;20154;-91
2021/08/15 22:30:07;;;;;;;9.80;3.97;;;;;;;;;;6122230;23;20225;-90
2021/08/15 22:33:12;;;;;;;12.30;4.10;;;;;;;;;;6121759;23;20214;-90
2021/08/15 22:36:18;;;;;;;9.55;3.60;;;;;;;;;;6121379;23;20173;-90
2021/08/15 22:39:23;;;;;;;8.45;3.35;;;;;;;;;;6122106;23;20205;-89
2021/08/15 22:42:29;;;;;;;13.90;3.88;;;;;;;;;;6123136;23;20173;-92
2021/08/15 22:45:34;;;;;;;9.05;3.92;;;;;;;;;;6123677;23;20180;-91
2021/08/15 22:48:39;;;;;;;11.07;4.20;;;;;;;;;;6123165;23;20177;-91
2021/08/15 22:51:45;;;;;;;17.23;6.38;;;;;;;;;;6123805;23;20174;-91
2021/08/15 22:54:50;;;;;;;9.48;4.20;;;;;;;;;;6122799;23;20185;-89
2021/08/15 22:57:56;;;;;;;6.75;3.53;;;;;;;;;;6122031;23;20221;-92
2021/08/15 23:01:02;;;;;;;7.72;3.95;;;;;;;;;;6123015;23;20173;-90
2021/08/15 23:04:08;;;;;;;11.75;4.38;;;;;;;;;;6122492;23;20169;-90
2021/08/15 23:07:13;;;;;;;9.98;3.97;;;;;;;;;;6124133;23;20169;-90
2021/08/15 23:10:18;;;;;;;9.57;4.00;;;;;;;;;;6123487;23;20636;-91
2021/08/15 23:13:25;;;;;;;14.07;4.30;;;;;;;;;;6123717;23;20596;-92
2021/08/15 23:16:30;;;;;;;9.38;3.92;;;;;;;;;;6121375;23;20227;-90
2021/08/15 23:19:36;;;;;;;12.48;3.90;;;;;;;;;;6123108;23;20205;-90
2021/08/15 23:22:41;;;;;;;8.88;4.13;;;;;;;;;;6123207;23;20210;-90
2021/08/15 23:25:46;;;;;;;11.38;4.63;;;;;;;;;;6126856;23;20159;-89
2021/08/15 23:28:54;;;;;;;9.63;4.40;;;;;;;;;;6125301;23;20168;-90
2021/08/15 23:32:00;;;;;;;11.05;4.50;;;;;;;;;;6124270;23;20182;-90
2021/08/15 23:35:05;;;;;;;9.15;3.65;;;;;;;;;;6126193;23;20173;-90
2021/08/15 23:38:10;;;;;;;10.75;3.92;;;;;;;;;;6126243;23;20193;-89